Time;durP1;ratioP1;P1;durP2;ratioP2;P2;SDS_P1;SDS_P2;PMS_P1;PMS_P2;Temp;Humidity;BMP_temperature;BMP_pressure;BME280_temperature;BME280_humidity;BME280_pressure;Samples;Min_cycle;Max_cycle;Signal;HPM_P1;HPM_P2
2022/04/21 00:00:44;;;;;;;5.20;4.70;;;9.30;95.50;;;;;;4998519;28;20488;-84
2022/04/21 00:03:09;;;;;;;4.78;4.28;;;9.20;96.60;;;;;;5016664;28;20481;-83
2022/04/21 00:05:35;;;;;;;5.07;4.65;;;9.30;96.70;;;;;;5016250;28;20424;-83
2022/04/21 00:08:02;;;;;;;5.53;5.03;;;9.50;95.80;;;;;;4998454;28;20405;-83
2022/04/21 00:10:29;;;;;;;5.10;4.65;;;9.70;95.10;;;;;;5015973;28;20388;-83
2022/04/21 00:12:55;;;;;;;5.05;4.65;;;9.60;94.80;;;;;;4998211;28;20389;-83
2022/04/21 00:15:21;;;;;;;5.15;4.65;;;9.50;95.90;;;;;;5016025;28;20395;-83
2022/04/21 00:17:47;;;;;;;5.00;4.60;;;9.60;95.00;;;;;;4996441;28;20398;-83
2022/04/21 00:20:13;;;;;;;5.13;4.70;;;9.60;96.10;;;;;;5015816;28;20405;-83
2022/04/21 00:25:26;;;;;;;4.90;4.55;;;9.40;95.10;;;;;;5013314;28;20442;-83
2022/04/21 00:27:53;;;;;;;5.35;4.85;;;9.50;94.60;;;;;;5003222;28;20737;-83
2022/04/21 00:30:18;;;;;;;4.88;4.50;;;9.40;95.50;;;;;;5012925;28;20406;-84
2022/04/21 00:32:46;;;;;;;5.33;4.93;;;9.30;95.20;;;;;;5015566;28;20392;-82
2022/04/21 00:35:13;;;;;;;6.25;4.90;;;9.30;95.40;;;;;;5015535;28;20866;-83
2022/04/21 00:37:56;;;;;;;5.28;4.72;;;9.30;94.80;;;;;;5015662;28;20455;-83
2022/04/21 00:40:26;;;;;;;5.45;4.57;;;9.10;95.60;;;;;;5015065;28;20427;-83
2022/04/21 00:42:52;;;;;;;5.70;5.10;;;9.70;95.20;;;;;;5007949;28;20415;-83
2022/04/21 00:45:17;;;;;;;6.30;5.00;;;9.20;95.80;;;;;;5014211;28;20401;-83
2022/04/21 00:47:45;;;;;;;5.23;4.73;;;9.20;95.70;;;;;;5006198;28;20762;-83
2022/04/21 00:50:16;;;;;;;5.43;4.80;;;9.00;95.90;;;;;;5015144;28;20443;-83
2022/04/21 00:52:42;;;;;;;5.07;4.60;;;9.20;95.30;;;;;;5015306;28;20393;-82
2022/04/21 00:55:09;;;;;;;5.18;4.78;;;9.00;95.80;;;;;;5014866;28;20499;-83
2022/04/21 00:57:35;;;;;;;5.38;4.97;;;9.00;96.70;;;;;;5003465;28;20396;-83
2022/04/21 01:00:03;;;;;;;5.25;4.85;;;9.10;95.70;;;;;;5015034;28;20420;-83
2022/04/21 01:02:47;;;;;;;4.88;4.47;;;9.00;96.20;;;;;;5014929;28;20385;-82
2022/04/21 01:05:33;;;;;;;5.30;4.90;;;9.00;96.70;;;;;;5015274;28;20381;-83
2022/04/21 01:08:04;;;;;;;5.50;5.10;;;9.00;96.80;;;;;;5014944;28;20396;-83
2022/04/21 01:10:32;;;;;;;5.10;4.60;;;9.00;96.60;;;;;;5011347;28;20389;-83
2022/04/21 01:12:59;;;;;;;4.97;4.60;;;8.90;95.90;;;;;;5000845;28;20442;-83
2022/04/21 01:15:25;;;;;;;5.07;4.70;;;9.00;96.30;;;;;;5015124;28;20389;-83
2022/04/21 01:17:52;;;;;;;5.47;5.03;;;8.90;96.20;;;;;;5014735;28;20391;-83
2022/04/21 01:20:19;;;;;;;5.20;4.80;;;8.90;96.60;;;;;;5014833;28;20466;-83
2022/04/21 01:22:45;;;;;;;5.30;4.80;;;8.80;96.90;;;;;;5014664;28;20397;-83
2022/04/21 01:25:11;;;;;;;5.53;5.13;;;9.40;97.00;;;;;;5014847;28;20388;-84
2022/04/21 01:27:38;;;;;;;5.10;4.70;;;8.90;96.80;;;;;;5014711;28;20817;-84
2022/04/21 01:30:05;;;;;;;5.53;5.03;;;8.90;97.00;;;;;;5014460;28;20396;-82
2022/04/21 01:32:35;;;;;;;5.40;5.00;;;8.80;96.80;;;;;;5014495;28;20435;-83
2022/04/21 01:35:02;;;;;;;6.28;5.03;;;8.80;97.20;;;;;;5014793;28;20389;-83
2022/04/21 01:42:56;;;;;;;5.60;5.10;;;9.20;97.10;;;;;;5000387;28;20383;-84
2022/04/21 01:45:22;;;;;;;5.38;4.97;;;8.60;96.70;;;;;;5014305;28;20381;-84
2022/04/21 01:47:48;;;;;;;5.00;4.60;;;8.50;97.10;;;;;;5005573;28;20384;-84
2022/04/21 01:50:13;;;;;;;5.90;5.18;;;8.60;97.00;;;;;;5012297;28;20980;-84
2022/04/21 01:52:39;;;;;;;6.50;5.18;;;8.70;96.10;;;;;;4989449;28;20482;-84
2022/04/21 01:55:06;;;;;;;5.63;5.13;;;8.50;96.30;;;;;;4999020;28;20482;-84
2022/04/21 01:57:32;;;;;;;4.95;4.60;;;8.50;96.50;;;;;;5008705;28;20904;-84
2022/04/21 01:59:57;;;;;;;5.20;4.73;;;8.60;96.50;;;;;;5008609;28;20421;-84
2022/04/21 02:02:23;;;;;;;5.37;4.87;;;8.50;96.40;;;;;;5013348;28;20393;-84
2022/04/21 02:04:48;;;;;;;5.77;5.17;;;8.60;96.80;;;;;;5013556;28;20404;-84
2022/04/21 02:07:15;;;;;;;5.20;4.80;;;8.60;96.00;;;;;;5013629;28;20887;-84
2022/04/21 02:09:40;;;;;;;5.43;5.03;;;8.50;96.50;;;;;;5013543;28;20400;-84
2022/04/21 02:12:06;;;;;;;5.47;5.07;;;8.60;96.00;;;;;;4995886;28;20400;-84
2022/04/21 02:14:33;;;;;;;5.32;4.93;;;8.60;96.00;;;;;;5013308;28;20397;-84
2022/04/21 02:16:59;;;;;;;5.22;4.82;;;8.30;96.60;;;;;;5013635;28;20395;-84
2022/04/21 02:19:25;;;;;;;5.20;4.80;;;8.20;97.80;;;;;;5013066;28;20507;-84
2022/04/21 02:21:51;;;;;;;5.45;5.00;;;8.30;96.70;;;;;;5000472;28;20460;-84
2022/04/21 02:24:16;;;;;;;5.43;5.03;;;8.30;96.40;;;;;;5013180;28;20754;-84
2022/04/21 02:26:42;;;;;;;5.60;5.20;;;8.30;97.10;;;;;;4995734;28;20399;-84
2022/04/21 02:29:07;;;;;;;6.00;5.50;;;8.20;96.30;;;;;;5013261;28;20824;-83
2022/04/21 02:31:33;;;;;;;5.60;5.00;;;8.10;97.20;;;;;;5013315;28;20651;-83
2022/04/21 02:33:58;;;;;;;5.80;5.30;;;8.40;96.80;;;;;;5013030;28;20496;-83
2022/04/21 02:36:24;;;;;;;5.32;4.93;;;8.00;96.40;;;;;;5012953;28;20866;-84
2022/04/21 02:38:50;;;;;;;5.72;5.22;;;8.20;97.20;;;;;;5008424;28;20395;-83
2022/04/21 02:41:16;;;;;;;5.65;5.25;;;8.30;97.10;;;;;;4998662;28;20403;-83
2022/04/21 02:43:41;;;;;;;7.07;5.32;;;8.30;97.50;;;;;;5011912;28;20397;-83
2022/04/21 02:46:08;;;;;;;5.50;5.10;;;8.30;96.70;;;;;;5009692;28;20407;-82
2022/04/21 02:48:34;;;;;;;5.80;5.30;;;8.30;97.40;;;;;;5009894;28;20389;-84
2022/04/21 02:51:00;;;;;;;5.50;5.10;;;8.30;97.80;;;;;;5012975;28;20389;-84
2022/04/21 02:58:54;;;;;;;5.18;4.78;;;8.10;98.50;;;;;;5013033;28;20432;-84
2022/04/21 03:01:19;;;;;;;5.17;4.77;;;8.00;98.30;;;;;;5012695;28;20417;-84
2022/04/21 03:03:45;;;;;;;6.40;5.80;;;8.40;98.20;;;;;;5006870;28;20748;-83
2022/04/21 03:06:12;;;;;;;5.73;5.17;;;7.90;97.90;;;;;;5010867;28;20380;-84
2022/04/21 03:08:38;;;;;;;5.82;5.32;;;7.80;98.30;;;;;;5012079;28;20380;-84
2022/04/21 03:11:03;;;;;;;5.43;4.93;;;8.50;98.60;;;;;;5012476;28;20397;-84
2022/04/21 03:13:29;;;;;;;6.50;5.70;;;7.80;98.70;;;;;;5012762;28;20742;-84
2022/04/21 03:15:55;;;;;;;5.45;5.05;;;7.80;98.70;;;;;;5012884;28;20397;-84
2022/04/21 03:18:21;;;;;;;5.78;5.28;;;7.90;98.70;;;;;;4995096;28;20400;-83
2022/04/21 03:26:17;;;;;;;6.72;5.80;;;7.90;99.20;;;;;;5012268;28;20766;-84
2022/04/21 03:28:43;;;;;;;6.40;5.80;;;8.10;99.40;;;;;;5012396;28;20413;-84
2022/04/21 03:31:09;;;;;;;6.55;5.68;;;7.70;99.70;;;;;;5012370;28;20401;-83
2022/04/21 03:33:34;;;;;;;6.50;5.60;;;8.20;99.60;;;;;;5012413;28;20385;-83
2022/04/21 03:36:00;;;;;;;6.20;5.60;;;7.90;98.80;;;;;;5012413;28;20849;-83
2022/04/21 03:38:25;;;;;;;6.10;5.50;;;7.70;99.00;;;;;;5012277;28;20858;-84
2022/04/21 03:40:51;;;;;;;6.30;5.70;;;7.70;99.20;;;;;;4996808;28;20500;-83
2022/04/21 03:43:17;;;;;;;5.70;5.30;;;7.70;99.60;;;;;;5007824;28;20404;-83
2022/04/21 03:45:42;;;;;;;5.87;5.30;;;7.70;99.50;;;;;;5012486;28;20861;-84
2022/04/21 03:48:08;;;;;;;6.57;5.97;;;7.70;99.20;;;;;;5012258;28;20395;-84
2022/04/21 03:50:34;;;;;;;6.60;6.10;;;7.70;99.90;;;;;;5000780;28;20400;-83
2022/04/21 03:53:00;;;;;;;6.43;5.93;;;7.60;99.40;;;;;;4992950;28;20401;-83
2022/04/21 03:55:25;;;;;;;6.32;5.82;;;7.50;99.30;;;;;;4993294;28;20414;-84
2022/04/21 03:57:51;;;;;;;5.95;5.50;;;7.40;99.90;;;;;;5011727;28;20455;-83
2022/04/21 04:00:18;;;;;;;6.40;5.80;;;7.50;99.90;;;;;;5006084;28;20420;-83
2022/04/21 04:02:43;;;;;;;6.55;5.95;;;7.50;99.10;;;;;;5012074;28;20920;-83
2022/04/21 04:05:09;;;;;;;6.68;6.07;;;7.60;99.40;;;;;;5012134;28;20480;-83
2022/04/21 04:13:03;;;;;;;6.78;6.28;;;7.70;99.80;;;;;;5012352;28;20392;-84
2022/04/21 04:15:28;;;;;;;7.43;6.72;;;7.60;99.90;;;;;;5012586;28;20392;-84
2022/04/21 04:17:54;;;;;;;7.60;6.90;;;7.50;99.90;;;;;;5013673;28;20401;-83
2022/04/21 04:20:20;;;;;;;6.75;6.20;;;7.60;99.90;;;;;;5017167;28;20404;-85
2022/04/21 04:22:45;;;;;;;6.60;5.88;;;7.60;99.90;;;;;;5016570;28;20438;-83
2022/04/21 04:25:11;;;;;;;7.38;6.68;;;7.60;99.30;;;;;;5006412;28;20378;-84
2022/04/21 04:27:37;;;;;;;7.28;6.60;;;7.70;99.90;;;;;;5008632;28;20443;-83
2022/04/21 04:30:04;;;;;;;7.15;6.45;;;7.70;99.90;;;;;;5015800;28;20393;-84
2022/04/21 04:32:30;;;;;;;7.30;6.60;;;7.40;99.90;;;;;;4998277;28;20400;-84
2022/04/21 04:34:56;;;;;;;7.22;6.53;;;7.70;99.90;;;;;;5016529;28;20862;-84
2022/04/21 04:37:21;;;;;;;6.72;6.30;;;7.40;99.90;;;;;;5016342;28;20462;-83
2022/04/21 04:39:47;;;;;;;7.10;6.60;;;7.20;99.90;;;;;;4997734;28;20883;-84
2022/04/21 04:42:20;;;;;;;7.47;6.40;;;7.20;99.90;;;;;;5006583;28;20400;-84
2022/04/21 04:44:47;;;;;;;6.72;6.22;;;7.20;99.90;;;;;;5002271;28;20444;-84
2022/04/21 04:47:13;;;;;;;7.55;6.88;;;7.30;99.90;;;;;;4995739;28;20871;-84
2022/04/21 04:49:38;;;;;;;6.67;6.17;;;7.40;99.90;;;;;;4995758;28;20406;-84
2022/04/21 04:52:05;;;;;;;6.83;6.33;;;7.50;99.90;;;;;;4995588;28;20394;-84
2022/04/21 04:54:31;;;;;;;7.45;6.80;;;7.30;99.90;;;;;;4994892;28;20390;-84
2022/04/21 04:56:57;;;;;;;8.37;6.50;;;7.40;99.90;;;;;;4995363;28;20867;-84
2022/04/21 04:59:23;;;;;;;6.40;5.82;;;7.40;99.90;;;;;;4993699;28;20418;-84
2022/04/21 05:01:51;;;;;;;7.53;6.82;;;7.50;99.60;;;;;;4996292;28;20395;-83
2022/04/21 05:04:18;;;;;;;7.20;6.60;;;7.50;99.90;;;;;;4994054;28;20398;-82
2022/04/21 05:06:49;;;;;;;7.03;6.37;;;8.10;99.90;;;;;;4992841;28;20507;-82
2022/04/21 05:09:17;;;;;;;6.85;6.35;;;7.50;99.60;;;;;;5002189;28;20431;-84
2022/04/21 05:11:46;;;;;;;6.87;6.17;;;7.60;99.90;;;;;;4996948;28;20464;-83
2022/04/21 05:14:13;;;;;;;8.38;6.70;;;7.70;99.50;;;;;;5014661;28;20389;-84
2022/04/21 05:16:39;;;;;;;7.20;6.53;;;7.80;99.40;;;;;;4997673;28;20460;-83
2022/04/21 05:19:09;;;;;;;7.05;6.38;;;7.80;99.70;;;;;;4996526;28;20409;-84
2022/04/21 05:21:36;;;;;;;6.68;6.18;;;7.70;99.90;;;;;;5005645;28;20435;-83
2022/04/21 05:24:03;;;;;;;7.00;6.43;;;7.70;99.90;;;;;;5003552;28;20434;-84
2022/04/21 05:26:31;;;;;;;7.53;6.50;;;7.60;99.90;;;;;;5012058;28;20392;-84
2022/04/21 05:28:58;;;;;;;6.70;6.10;;;7.70;99.90;;;;;;5014476;28;20397;-83
2022/04/21 05:31:26;;;;;;;7.10;6.50;;;7.70;99.90;;;;;;5011774;28;20385;-83
2022/04/21 05:33:52;;;;;;;7.03;6.53;;;7.80;99.60;;;;;;5002487;28;20385;-83
2022/04/21 05:36:18;;;;;;;7.32;6.72;;;7.70;99.50;;;;;;4997312;28;20385;-83
2022/04/21 05:38:46;;;;;;;7.53;6.70;;;7.70;99.90;;;;;;5014211;28;20396;-84
2022/04/21 05:41:13;;;;;;;7.20;6.60;;;7.50;99.60;;;;;;5007145;28;20473;-84
2022/04/21 05:43:42;;;;;;;7.00;6.50;;;7.50;99.90;;;;;;5012837;28;20389;-84
2022/04/21 05:46:08;;;;;;;7.85;7.15;;;7.40;99.90;;;;;;5004857;28;20390;-84
2022/04/21 05:48:38;;;;;;;7.68;7.07;;;7.20;99.90;;;;;;5011057;28;20471;-84
2022/04/21 05:51:05;;;;;;;7.90;7.20;;;6.90;99.90;;;;;;5013640;28;20416;-84
2022/04/21 05:53:36;;;;;;;7.30;6.65;;;7.00;99.90;;;;;;5013937;28;20807;-84
2022/04/21 05:56:06;;;;;;;7.72;7.03;;;7.20;99.90;;;;;;5006232;28;20891;-84
2022/04/21 05:58:32;;;;;;;7.85;7.15;;;7.40;99.90;;;;;;4993916;28;20752;-84
2022/04/21 06:00:59;;;;;;;7.90;7.20;;;7.40;99.90;;;;;;4996555;28;20385;-85
2022/04/21 06:03:25;;;;;;;7.93;7.22;;;7.50;99.90;;;;;;5003288;28;20391;-84
2022/04/21 06:05:51;;;;;;;8.00;7.30;;;7.40;99.90;;;;;;5010909;28;20492;-83
2022/04/21 06:08:17;;;;;;;7.63;6.90;;;7.60;99.90;;;;;;5014171;28;20832;-83
2022/04/21 06:10:43;;;;;;;7.50;6.80;;;8.00;99.90;;;;;;4995993;28;20914;-83
2022/04/21 06:13:09;;;;;;;8.30;7.60;;;7.70;99.90;;;;;;5013744;28;20393;-83
2022/04/21 06:15:34;;;;;;;8.07;7.30;;;7.70;99.90;;;;;;5013797;28;20882;-83
2022/04/21 06:18:00;;;;;;;8.67;7.77;;;7.80;99.90;;;;;;5013667;28;20384;-83
2022/04/21 06:20:27;;;;;;;7.90;7.20;;;7.80;99.90;;;;;;5004953;28;20886;-84
2022/04/21 06:22:56;;;;;;;8.15;7.45;;;7.90;99.90;;;;;;5013447;28;20905;-83
2022/04/21 06:25:22;;;;;;;8.50;7.80;;;7.90;99.90;;;;;;5013351;28;20450;-83
2022/04/21 06:27:51;;;;;;;8.90;8.05;;;8.00;99.90;;;;;;5013333;28;20468;-84
2022/04/21 06:30:19;;;;;;;9.45;7.95;;;8.40;99.90;;;;;;5012524;28;20413;-84
2022/04/21 06:32:44;;;;;;;8.70;7.80;;;8.00;99.90;;;;;;5005617;28;20579;-84
2022/04/21 06:35:10;;;;;;;8.20;7.50;;;8.10;99.90;;;;;;5005747;28;20485;-84
2022/04/21 06:37:36;;;;;;;9.02;8.18;;;8.20;99.90;;;;;;5000367;28;21082;-84
2022/04/21 06:40:03;;;;;;;8.13;7.43;;;8.20;99.90;;;;;;4994909;28;20965;-84
2022/04/21 06:42:29;;;;;;;9.13;8.15;;;8.10;99.90;;;;;;4993720;28;20880;-84
2022/04/21 06:50:23;;;;;;;8.95;8.20;;;8.50;99.90;;;;;;5011162;28;20415;-84
2022/04/21 06:52:48;;;;;;;9.63;8.10;;;8.40;99.90;;;;;;5006692;28;20393;-82
2022/04/21 06:55:14;;;;;;;8.37;7.57;;;8.50;99.90;;;;;;4995109;28;20387;-86
2022/04/21 06:57:39;;;;;;;8.93;8.13;;;8.50;99.90;;;;;;5011753;28;20472;-87
2022/04/21 07:00:06;;;;;;;9.17;7.93;;;8.50;99.90;;;;;;4996602;28;20396;-86
2022/04/21 07:02:32;;;;;;;9.07;8.18;;;8.60;99.90;;;;;;5007257;28;20529;-84
2022/04/21 07:05:05;;;;;;;12.13;8.23;;;8.70;99.90;;;;;;5011010;28;20468;-85
2022/04/21 07:07:31;;;;;;;9.57;8.60;;;8.80;99.90;;;;;;5011769;28;20464;-86
2022/04/21 07:09:57;;;;;;;9.35;8.48;;;8.80;99.90;;;;;;5005917;28;20548;-86
2022/04/21 07:12:29;;;;;;;9.73;8.73;;;8.80;99.80;;;;;;5005792;28;20389;-86
2022/04/21 07:15:07;;;;;;;9.02;8.10;;;9.00;99.90;;;;;;4999201;28;20404;-86
2022/04/21 07:17:33;;;;;;;9.73;8.82;;;9.20;99.60;;;;;;4997321;28;20393;-87
2022/04/21 07:19:59;;;;;;;10.90;8.53;;;9.20;99.90;;;;;;4985357;28;20385;-86
2022/04/21 07:22:25;;;;;;;9.32;8.43;;;9.60;99.90;;;;;;5012628;28;20411;-86
2022/04/21 07:24:55;;;;;;;9.10;8.20;;;9.30;99.60;;;;;;4998775;28;20874;-86
2022/04/21 07:27:21;;;;;;;9.40;8.60;;;9.20;99.40;;;;;;5012621;28;20881;-86
2022/04/21 07:29:47;;;;;;;9.43;8.63;;;10.00;99.70;;;;;;5012563;28;20405;-81
2022/04/21 07:32:13;;;;;;;10.68;8.30;;;9.90;99.90;;;;;;5012227;28;20396;-85
2022/04/21 07:34:39;;;;;;;9.43;8.32;;;9.70;99.70;;;;;;5006723;28;20827;-84
2022/04/21 07:37:05;;;;;;;9.20;8.30;;;9.50;99.30;;;;;;4999025;28;20469;-84
2022/04/21 07:39:31;;;;;;;9.90;8.27;;;9.50;99.40;;;;;;5011034;28;20866;-84
2022/04/21 07:41:58;;;;;;;7.90;7.13;;;9.70;99.00;;;;;;5008246;28;20392;-83
2022/04/21 07:44:26;;;;;;;8.07;7.25;;;9.90;98.90;;;;;;5012708;28;20408;-83
2022/04/21 07:46:53;;;;;;;8.23;7.53;;;9.90;98.00;;;;;;5005633;28;20400;-81
2022/04/21 07:54:47;;;;;;;8.65;7.72;;;10.20;97.60;;;;;;5008303;28;20431;-82
2022/04/21 07:57:13;;;;;;;8.23;7.47;;;10.30;97.80;;;;;;5015580;28;20392;-82
2022/04/21 07:59:39;;;;;;;8.23;7.43;;;10.40;97.90;;;;;;5015668;28;20417;-83
2022/04/21 08:02:08;;;;;;;8.35;7.47;;;10.50;97.70;;;;;;5016034;28;20403;-81
2022/04/21 08:04:34;;;;;;;8.70;7.90;;;10.50;97.40;;;;;;5015864;28;20762;-82
2022/04/21 08:07:00;;;;;;;8.27;7.57;;;10.60;97.30;;;;;;5016022;28;20472;-81
2022/04/21 08:09:26;;;;;;;8.37;7.60;;;10.60;97.60;;;;;;5001267;28;20484;-83
2022/04/21 08:11:52;;;;;;;8.48;7.75;;;10.70;97.40;;;;;;5014723;28;20431;-81
2022/04/21 08:14:17;;;;;;;9.00;8.10;;;10.80;97.70;;;;;;5015672;28;20738;-82
2022/04/21 08:16:43;;;;;;;10.05;7.47;;;11.40;97.60;;;;;;5016148;28;20389;-82
2022/04/21 08:19:10;;;;;;;8.10;7.30;;;11.10;98.40;;;;;;5015511;28;20865;-81
2022/04/21 08:21:37;;;;;;;7.72;7.13;;;11.20;97.10;;;;;;5015603;28;20434;-82
2022/04/21 08:32:33;;;;;;;8.40;7.55;;;11.30;97.10;;;;;;5015677;28;20799;-82
2022/04/21 08:35:03;;;;;;;7.97;7.38;;;11.50;97.30;;;;;;5015362;28;20746;-82
2022/04/21 08:37:33;;;;;;;7.38;6.88;;;11.50;96.90;;;;;;5000837;28;20390;-83
2022/04/21 08:40:00;;;;;;;8.77;7.97;;;11.70;97.10;;;;;;5011942;28;20809;-82
2022/04/21 08:42:29;;;;;;;11.00;10.10;;;11.80;97.00;;;;;;5006500;28;20458;-82
2022/04/21 08:44:59;;;;;;;8.57;7.88;;;11.80;97.40;;;;;;5015026;28;20463;-82
2022/04/21 08:47:28;;;;;;;8.02;7.28;;;12.00;97.40;;;;;;4997161;28;20831;-82
2022/04/21 08:50:01;;;;;;;8.70;7.13;;;12.10;96.10;;;;;;4998784;28;20416;-82
2022/04/21 08:52:28;;;;;;;8.10;7.40;;;12.20;95.10;;;;;;5015122;28;20817;-82
2022/04/21 08:54:54;;;;;;;7.78;6.82;;;12.20;95.30;;;;;;4997489;28;20455;-83
2022/04/21 08:57:21;;;;;;;8.15;7.18;;;12.30;95.30;;;;;;5014892;28;20392;-82
2022/04/21 08:59:47;;;;;;;7.50;6.80;;;12.40;94.90;;;;;;5014988;28;20393;-82
2022/04/21 09:02:13;;;;;;;6.93;6.35;;;12.60;94.50;;;;;;5014878;28;20389;-82
2022/04/21 09:04:39;;;;;;;7.43;6.82;;;12.60;94.10;;;;;;5014743;28;20384;-82
2022/04/21 09:07:19;;;;;;;6.93;6.32;;;12.70;93.60;;;;;;5002284;28;20394;-82
2022/04/21 09:10:04;;;;;;;7.17;6.57;;;12.90;94.00;;;;;;4996806;28;20773;-83
2022/04/21 09:12:30;;;;;;;7.07;6.47;;;12.90;94.70;;;;;;5014616;28;20794;-82
2022/04/21 09:14:57;;;;;;;7.28;6.68;;;13.00;94.50;;;;;;5014735;28;20902;-82
2022/04/21 09:17:23;;;;;;;7.25;6.65;;;13.10;94.30;;;;;;5014594;28;20425;-83
2022/04/21 09:20:03;;;;;;;7.15;6.55;;;13.30;94.30;;;;;;5014481;28;20393;-83
2022/04/21 09:22:32;;;;;;;7.07;6.47;;;13.50;93.30;;;;;;5014556;28;20432;-83
2022/04/21 09:25:00;;;;;;;7.15;6.55;;;13.70;94.00;;;;;;5014275;28;20882;-82
2022/04/21 09:27:40;;;;;;;7.43;6.78;;;13.80;93.30;;;;;;5010125;28;20396;-82
2022/04/21 09:30:10;;;;;;;6.93;6.23;;;13.90;93.30;;;;;;5014347;28;20495;-82
2022/04/21 09:32:36;;;;;;;6.80;6.10;;;13.80;93.20;;;;;;5014798;28;20438;-82
2022/04/21 09:35:04;;;;;;;6.68;5.97;;;14.00;93.50;;;;;;5014322;28;20397;-82
2022/04/21 09:37:30;;;;;;;8.15;6.80;;;14.10;93.00;;;;;;5014336;28;20743;-83
2022/04/21 09:39:56;;;;;;;7.43;6.73;;;14.30;94.30;;;;;;5014112;28;20453;-82
2022/04/21 09:42:25;;;;;;;6.97;6.38;;;14.50;93.40;;;;;;5005522;28;20428;-82
2022/04/21 09:47:35;;;;;;;7.07;6.47;;;14.70;92.00;;;;;;5014134;28;20473;-83
2022/04/21 09:50:12;;;;;;;7.43;6.72;;;14.70;92.20;;;;;;5013869;28;20448;-83
2022/04/21 09:52:38;;;;;;;7.47;6.30;;;14.90;92.40;;;;;;5002411;28;20384;-83
2022/04/21 09:55:20;;;;;;;7.15;6.55;;;15.00;93.10;;;;;;4996499;28;20393;-82
2022/04/21 09:57:49;;;;;;;7.32;6.63;;;15.10;92.50;;;;;;5014153;28;20452;-83
2022/04/21 10:00:16;;;;;;;7.00;6.50;;;15.30;91.80;;;;;;5012704;28;20393;-82
2022/04/21 10:02:45;;;;;;;6.97;6.32;;;15.20;91.60;;;;;;4996172;28;20389;-83
2022/04/21 10:05:12;;;;;;;7.10;6.40;;;15.20;91.90;;;;;;5014005;28;20395;-82
2022/04/21 10:07:38;;;;;;;6.60;6.00;;;15.40;91.50;;;;;;5013832;28;20424;-83
2022/04/21 10:10:06;;;;;;;7.15;6.32;;;15.60;91.90;;;;;;5014134;28;20419;-83
2022/04/21 10:12:31;;;;;;;6.80;6.10;;;15.90;92.00;;;;;;5013736;28;20429;-83
2022/04/21 10:14:58;;;;;;;6.88;6.18;;;15.90;91.20;;;;;;5014096;28;20901;-82
2022/04/21 10:17:23;;;;;;;7.43;5.70;;;15.90;90.10;;;;;;5013446;28;20392;-83
2022/04/21 10:19:52;;;;;;;6.90;6.30;;;16.00;90.70;;;;;;4995892;28;20385;-84
2022/04/21 10:22:19;;;;;;;6.75;6.15;;;16.30;90.80;;;;;;5013666;28;20435;-84
2022/04/21 10:24:46;;;;;;;6.60;6.00;;;16.40;90.70;;;;;;4999804;28;20392;-83
2022/04/21 10:27:38;;;;;;;7.28;6.57;;;16.60;90.90;;;;;;5013591;28;20392;-83
2022/04/21 10:30:15;;;;;;;6.63;6.03;;;16.70;90.30;;;;;;5013587;28;20416;-83
2022/04/21 10:32:52;;;;;;;6.63;5.97;;;17.00;90.50;;;;;;5013540;28;20431;-84
2022/04/21 10:35:40;;;;;;;5.95;5.55;;;17.10;90.40;;;;;;5014420;28;20451;-83
2022/04/21 10:38:20;;;;;;;6.03;5.43;;;17.10;85.50;;;;;;5008419;28;20457;-83
2022/04/21 10:41:03;;;;;;;6.68;6.18;;;16.80;86.70;;;;;;5011260;28;20390;-83
2022/04/21 10:43:47;;;;;;;6.40;5.78;;;16.60;87.90;;;;;;5011252;28;20893;-84
2022/04/21 10:46:21;;;;;;;5.77;5.30;;;16.60;86.40;;;;;;5008066;28;20419;-84
2022/04/21 10:48:47;;;;;;;6.40;5.88;;;16.50;87.30;;;;;;5007795;28;20396;-84
2022/04/21 10:57:10;;;;;;;6.57;6.00;;;16.60;87.80;;;;;;5014252;28;20409;-84
2022/04/21 10:57:32;;;;;;;7.30;6.70;;;16.80;89.20;;;;;;4980824;28;20384;-83
2022/04/21 11:00:09;;;;;;;8.18;6.10;;;16.90;89.20;;;;;;5012871;28;20388;-82
2022/04/21 11:02:43;;;;;;;6.13;5.57;;;17.10;88.90;;;;;;5012859;28;20723;-82
2022/04/21 11:05:33;;;;;;;6.95;6.20;;;17.30;89.10;;;;;;4994064;28;20415;-83
2022/04/21 11:08:03;;;;;;;6.95;6.45;;;17.50;88.90;;;;;;4987032;28;20433;-83
2022/04/21 11:10:38;;;;;;;7.73;6.30;;;17.70;88.60;;;;;;4984927;28;20490;-83
2022/04/21 11:13:05;;;;;;;7.07;6.10;;;17.80;89.10;;;;;;5001592;28;20388;-84
2022/04/21 11:15:34;;;;;;;6.95;6.43;;;17.80;88.20;;;;;;4995843;28;20411;-83
2022/04/21 11:18:05;;;;;;;7.50;6.57;;;17.70;88.60;;;;;;4990278;28;20539;-83
2022/04/21 11:20:30;;;;;;;6.82;6.32;;;17.50;87.80;;;;;;4989496;28;20408;-84
2022/04/21 11:22:56;;;;;;;6.82;6.32;;;17.40;88.30;;;;;;4988926;28;20487;-84
2022/04/21 11:25:23;;;;;;;6.82;6.22;;;17.50;89.30;;;;;;4984918;28;20909;-84
2022/04/21 11:27:51;;;;;;;7.65;7.05;;;17.70;89.20;;;;;;4993878;28;20442;-84
2022/04/21 11:30:18;;;;;;;7.32;6.72;;;17.60;88.90;;;;;;4996876;28;20780;-84
2022/04/21 11:32:52;;;;;;;8.05;7.25;;;17.70;89.40;;;;;;4996278;28;20394;-83
2022/04/21 11:35:22;;;;;;;7.13;6.63;;;17.90;90.00;;;;;;4989191;28;20942;-82
2022/04/21 11:37:57;;;;;;;7.43;6.82;;;18.00;89.70;;;;;;4990281;28;20408;-83
2022/04/21 11:40:30;;;;;;;6.80;6.15;;;18.00;89.90;;;;;;5003144;28;20909;-83
2022/04/21 11:42:57;;;;;;;7.50;6.27;;;18.20;89.10;;;;;;5002307;28;20400;-83
2022/04/21 11:45:25;;;;;;;7.45;6.65;;;18.20;87.70;;;;;;4999024;28;20411;-82
2022/04/21 11:47:52;;;;;;;7.05;6.47;;;18.10;87.00;;;;;;4991151;28;20413;-83
2022/04/21 11:50:26;;;;;;;7.18;6.68;;;18.10;88.10;;;;;;4992412;28;20472;-84
2022/04/21 11:52:55;;;;;;;7.55;6.72;;;18.20;89.60;;;;;;4990036;28;20386;-84
2022/04/21 11:55:22;;;;;;;7.00;6.50;;;18.50;88.10;;;;;;4993180;28;20839;-84
2022/04/21 11:57:49;;;;;;;6.93;6.47;;;18.40;88.70;;;;;;4993753;28;20489;-83
2022/04/21 12:00:17;;;;;;;6.53;6.07;;;18.30;88.60;;;;;;4996932;28;20403;-85
2022/04/21 12:08:12;;;;;;;6.78;6.28;;;18.60;86.80;;;;;;5048371;28;20411;-87
2022/04/21 12:10:40;;;;;;;7.63;6.93;;;18.50;87.70;;;;;;5048971;28;20426;-87
2022/04/21 12:13:06;;;;;;;6.83;6.13;;;18.50;88.50;;;;;;5056269;28;20412;-87
2022/04/21 12:15:36;;;;;;;7.20;6.60;;;18.50;87.90;;;;;;5055875;28;20389;-88
2022/04/21 12:18:03;;;;;;;6.75;6.05;;;18.50;88.10;;;;;;5050597;28;20385;-87
2022/04/21 12:20:30;;;;;;;6.35;5.85;;;18.40;87.70;;;;;;5045706;28;20414;-87
2022/04/21 12:22:56;;;;;;;7.18;6.50;;;18.30;88.50;;;;;;5043882;28;20464;-88
2022/04/21 12:25:32;;;;;;;7.10;6.60;;;18.50;89.10;;;;;;5040103;28;20399;-88
2022/04/21 12:28:03;;;;;;;8.20;6.68;;;18.70;88.60;;;;;;5050020;28;20875;-88
2022/04/21 12:30:29;;;;;;;6.85;6.22;;;18.70;89.30;;;;;;5045921;28;20409;-88
2022/04/21 12:32:55;;;;;;;6.65;6.15;;;18.70;90.90;;;;;;5068335;28;20415;-89
2022/04/21 12:35:49;;;;;;;6.83;6.23;;;19.00;89.80;;;;;;5056443;28;20439;-88
2022/04/21 12:41:02;;;;;;;6.90;6.40;;;19.50;89.90;;;;;;5054605;28;20423;-87
2022/04/21 12:43:31;;;;;;;6.93;6.40;;;19.50;88.20;;;;;;5048961;28;20527;-89
2022/04/21 12:46:00;;;;;;;7.20;6.70;;;19.50;89.30;;;;;;5054720;28;20859;-88
2022/04/21 12:48:27;;;;;;;7.88;7.20;;;19.50;90.00;;;;;;5059471;28;20510;-88
2022/04/21 12:50:54;;;;;;;8.23;6.88;;;19.50;89.90;;;;;;5054835;28;20464;-88
2022/04/21 12:53:26;;;;;;;6.68;6.28;;;19.30;90.10;;;;;;5072660;28;20491;-88
2022/04/21 12:55:52;;;;;;;6.47;5.90;;;19.30;89.50;;;;;;5074638;28;20922;-88
2022/04/21 12:58:34;;;;;;;7.90;7.10;;;19.60;90.60;;;;;;5059306;28;20387;-89
2022/04/21 13:01:04;;;;;;;6.72;6.13;;;19.60;89.90;;;;;;5066123;28;20431;-88
2022/04/21 13:03:29;;;;;;;6.93;6.28;;;19.50;89.70;;;;;;5069283;28;20483;-89
2022/04/21 13:05:57;;;;;;;7.22;6.47;;;19.60;90.30;;;;;;5074445;28;20952;-89
2022/04/21 13:08:25;;;;;;;7.50;6.82;;;19.50;90.00;;;;;;5074391;28;20387;-89
2022/04/21 13:10:52;;;;;;;7.25;6.65;;;19.70;89.30;;;;;;5074491;28;20466;-89
2022/04/21 13:13:18;;;;;;;7.40;6.80;;;19.50;88.70;;;;;;5074375;28;20515;-88
2022/04/21 13:15:47;;;;;;;6.88;6.38;;;19.20;88.90;;;;;;5074235;28;20422;-89
2022/04/21 13:18:14;;;;;;;7.53;6.93;;;19.30;90.50;;;;;;5074345;28;20388;-89
2022/04/21 13:23:25;;;;;;;7.50;6.63;;;19.00;90.10;;;;;;5074598;28;20390;-88
2022/04/21 13:25:52;;;;;;;8.20;7.60;;;19.10;90.60;;;;;;5066630;28;20484;-88
2022/04/21 13:28:18;;;;;;;7.70;7.05;;;19.20;90.40;;;;;;5065413;28;20380;-89
2022/04/21 13:30:44;;;;;;;8.17;7.47;;;19.30;91.40;;;;;;5074044;28;20491;-88
2022/04/21 13:33:21;;;;;;;7.82;7.10;;;19.30;89.70;;;;;;5074123;28;20383;-88
2022/04/21 13:35:51;;;;;;;6.82;6.32;;;19.30;90.50;;;;;;5055964;28;20388;-86
2022/04/21 13:38:17;;;;;;;6.73;6.30;;;19.30;91.70;;;;;;5073914;28;20520;-87
2022/04/21 13:40:44;;;;;;;6.40;6.00;;;19.30;90.30;;;;;;5078399;28;20452;-89
2022/04/21 13:43:10;;;;;;;7.30;6.70;;;19.40;90.80;;;;;;5074075;28;20926;-87
2022/04/21 13:45:39;;;;;;;7.28;6.65;;;19.50;90.00;;;;;;5073588;28;20479;-86
2022/04/21 13:48:07;;;;;;;6.83;6.33;;;19.30;89.90;;;;;;5073933;28;20413;-86
2022/04/21 13:50:33;;;;;;;7.18;6.50;;;19.50;92.20;;;;;;5073964;28;20378;-87
2022/04/21 13:52:59;;;;;;;6.65;6.15;;;19.70;91.60;;;;;;5073016;28;20384;-88
2022/04/21 13:55:25;;;;;;;7.53;6.93;;;19.90;90.50;;;;;;5073277;28;20391;-87
2022/04/21 13:57:50;;;;;;;6.68;6.15;;;19.90;89.50;;;;;;5073734;28;20457;-87